Time;durP1;ratioP1;P1;durP2;ratioP2;P2;SDS_P1;SDS_P2;PMS_P1;PMS_P2;Temp;Humidity;BMP_temperature;BMP_pressure;BME280_temperature;BME280_humidity;BME280_pressure;Samples;Min_cycle;Max_cycle;Signal;HPM_P1;HPM_P2
2022/12/16 00:01:08;;;;;;;;;;;1.40;99.90;;;;;;4993662;28;20017;-88
2022/12/16 00:03:34;;;;;;;;;;;-0.70;99.90;;;;;;4980030;28;19929;-89
2022/12/16 00:06:02;;;;;;;;;;;-0.70;99.90;;;;;;5013108;28;20373;-88
2022/12/16 00:08:28;;;;;;;;;;;-0.10;99.90;;;;;;4964036;28;19930;-88
2022/12/16 00:11:00;;;;;;;;;;;-0.70;99.90;;;;;;4997003;28;19970;-88
2022/12/16 00:13:26;;;;;;;;;;;-0.70;99.90;;;;;;4987766;28;19941;-89
2022/12/16 00:15:52;;;;;;;;;;;-0.70;99.90;;;;;;5030735;28;19929;-89
2022/12/16 00:18:18;;;;;;;;;;;-0.80;99.90;;;;;;5035467;28;19934;-88
2022/12/16 00:20:45;;;;;;;;;;;-0.80;99.90;;;;;;5028362;28;19996;-88
2022/12/16 00:23:11;;;;;;;;;;;-0.40;99.90;;;;;;5031062;28;19984;-88
2022/12/16 00:25:37;;;;;;;;;;;-0.90;99.90;;;;;;4967829;28;19926;-89
2022/12/16 00:28:03;;;;;;;;;;;-0.90;99.90;;;;;;5028846;28;20468;-89
2022/12/16 00:30:28;;;;;;;;;;;-0.90;99.90;;;;;;5026491;28;20399;-89
2022/12/16 00:32:54;;;;;;;;;;;-0.80;99.90;;;;;;5003527;28;19926;-88
2022/12/16 00:35:19;;;;;;;;;;;0.10;99.90;;;;;;5010715;28;19952;-89
2022/12/16 00:37:48;;;;;;;;;;;-1.00;99.90;;;;;;4991742;28;20050;-89
2022/12/16 00:40:14;;;;;;;;;;;-1.10;99.90;;;;;;5013564;28;19926;-89
2022/12/16 00:42:39;;;;;;;;;;;-1.10;99.90;;;;;;4992513;28;19940;-89
2022/12/16 00:45:05;;;;;;;;;;;-1.10;99.90;;;;;;4977507;28;20009;-89
2022/12/16 00:47:31;;;;;;;;;;;-1.10;99.90;;;;;;5050140;27;19959;-89
2022/12/16 00:49:56;;;;;;;;;;;-1.10;99.90;;;;;;5047117;28;19931;-89
2022/12/16 00:52:22;;;;;;;;;;;-1.20;99.90;;;;;;5018796;28;19964;-89
2022/12/16 00:54:47;;;;;;;;;;;-1.10;99.90;;;;;;5067231;28;19924;-89
2022/12/16 00:57:13;;;;;;;;;;;-1.20;99.90;;;;;;4969447;28;19926;-88
2022/12/16 00:59:38;;;;;;;;;;;-1.10;99.90;;;;;;4984412;28;19922;-89
2022/12/16 01:02:04;;;;;;;;;;;-1.20;99.90;;;;;;4969953;28;19926;-89
2022/12/16 01:04:30;;;;;;;;;;;-1.10;99.90;;;;;;4983314;28;19934;-89
2022/12/16 01:06:55;;;;;;;;;;;0.10;99.90;;;;;;4977212;28;19926;-89
2022/12/16 01:09:21;;;;;;;;;;;-1.00;99.90;;;;;;4967078;28;20357;-88
2022/12/16 01:11:47;;;;;;;;;;;-0.90;99.90;;;;;;4985820;28;19956;-89
2022/12/16 01:14:12;;;;;;;;;;;-0.80;99.90;;;;;;4966689;28;20063;-89
2022/12/16 01:16:38;;;;;;;;;;;-0.30;99.90;;;;;;4965664;28;19929;-88
2022/12/16 01:19:03;;;;;;;;;;;-0.60;99.90;;;;;;4984229;28;20022;-88
2022/12/16 01:21:29;;;;;;;;;;;-0.50;99.90;;;;;;4980006;28;19929;-88
2022/12/16 01:23:55;;;;;;;;;;;0.00;99.90;;;;;;4969045;28;19969;-88
2022/12/16 01:26:20;;;;;;;;;;;-0.10;99.90;;;;;;5004291;28;19924;-88
2022/12/16 01:28:47;;;;;;;;;;;-0.20;99.90;;;;;;4978686;28;19933;-88
2022/12/16 01:31:14;;;;;;;;;;;0.30;99.90;;;;;;4968283;28;19949;-88
2022/12/16 01:33:40;;;;;;;;;;;0.00;99.90;;;;;;4982509;28;19934;-88
2022/12/16 01:36:06;;;;;;;;;;;0.00;99.90;;;;;;4968773;28;19932;-89
2022/12/16 01:38:32;;;;;;;;;;;0.10;99.90;;;;;;4983750;28;19925;-87
2022/12/16 01:40:57;;;;;;;;;;;0.10;99.90;;;;;;4967903;28;19945;-88
2022/12/16 01:43:25;;;;;;;;;;;0.20;99.90;;;;;;4967443;28;19925;-89
2022/12/16 01:45:51;;;;;;;;;;;0.20;99.90;;;;;;4979347;28;20332;-89
2022/12/16 01:48:29;;;;;;;;;;;0.30;99.90;;;;;;4982314;28;19985;-88
2022/12/16 01:50:58;;;;;;;;;;;0.40;99.90;;;;;;4994222;28;19932;-88
2022/12/16 01:53:23;;;;;;;;;;;0.80;99.90;;;;;;4993081;28;19914;-88
2022/12/16 01:55:49;;;;;;;;;;;0.50;99.90;;;;;;4989325;28;19929;-88
2022/12/16 01:58:19;;;;;;;;;;;0.60;99.90;;;;;;5039131;28;19980;-88
2022/12/16 02:00:44;;;;;;;;;;;0.60;99.90;;;;;;5034918;28;19924;-88
2022/12/16 02:03:10;;;;;;;;;;;0.70;99.90;;;;;;5030558;28;19937;-88
2022/12/16 02:05:38;;;;;;;;;;;0.80;99.90;;;;;;5004074;28;20016;-88
2022/12/16 02:08:17;;;;;;;;;;;0.80;99.90;;;;;;5036152;28;19921;-88
2022/12/16 02:10:43;;;;;;;;;;;0.80;99.90;;;;;;5000726;28;19926;-89
2022/12/16 02:13:18;;;;;;;;;;;1.00;99.90;;;;;;4982839;28;20412;-88
2022/12/16 02:15:43;;;;;;;;;;;1.10;99.90;;;;;;5000670;28;19926;-89
2022/12/16 02:18:15;;;;;;;;;;;1.50;99.90;;;;;;4979990;28;20033;-87
2022/12/16 02:21:00;;;;;;;;;;;1.10;99.90;;;;;;4993183;28;19963;-87
2022/12/16 02:23:38;;;;;;;;;;;1.00;99.90;;;;;;4984800;28;19930;-86
2022/12/16 02:26:06;;;;;;;;;;;1.10;99.90;;;;;;4976497;28;19926;-87
2022/12/16 02:28:55;;;;;;;;;;;1.00;99.90;;;;;;4980890;28;19996;-87
2022/12/16 02:31:31;;;;;;;;;;;1.00;99.90;;;;;;4978944;28;19926;-86
2022/12/16 02:34:05;;;;;;;;;;;1.00;99.90;;;;;;4975384;28;19926;-88
2022/12/16 02:36:44;;;;;;;;;;;1.00;99.90;;;;;;4979178;28;19926;-89
2022/12/16 02:39:12;;;;;;;;;;;0.90;99.90;;;;;;4970798;28;19957;-88
2022/12/16 02:41:45;;;;;;;;;;;0.90;99.90;;;;;;4994308;28;19926;-88
2022/12/16 02:44:12;;;;;;;;;;;0.80;99.90;;;;;;4974369;28;19975;-88
2022/12/16 02:46:42;;;;;;;;;;;0.70;99.90;;;;;;4981616;28;19926;-87
2022/12/16 02:49:27;;;;;;;;;;;0.70;99.90;;;;;;4996298;28;19931;-88
2022/12/16 02:51:54;;;;;;;;;;;0.60;99.90;;;;;;4981773;28;19925;-88
2022/12/16 02:54:19;;;;;;;;;;;0.50;99.90;;;;;;4965250;28;19929;-88
2022/12/16 02:56:48;;;;;;;;;;;0.40;99.90;;;;;;4978126;28;19929;-88
2022/12/16 02:59:26;;;;;;;;;;;0.40;99.90;;;;;;4983016;28;19933;-88
2022/12/16 03:01:58;;;;;;;;;;;0.40;99.90;;;;;;5000176;28;19926;-88
2022/12/16 03:04:44;;;;;;;;;;;0.30;99.90;;;;;;4999490;28;20025;-88
2022/12/16 03:07:12;;;;;;;;;;;0.20;99.90;;;;;;4993153;28;19922;-88
2022/12/16 03:09:39;;;;;;;;;;;-1.80;99.90;;;;;;4983386;28;19922;-88
2022/12/16 03:12:07;;;;;;;;;;;0.20;99.90;;;;;;4967364;28;19971;-89
2022/12/16 03:14:34;;;;;;;;;;;0.20;99.90;;;;;;5022476;28;20339;-87
2022/12/16 03:17:00;;;;;;;;;;;0.10;99.90;;;;;;5066749;28;20038;-87
2022/12/16 03:19:27;;;;;;;;;;;0.10;99.90;;;;;;4980915;28;20259;-88
2022/12/16 03:22:10;;;;;;;;;;;0.00;99.90;;;;;;4963642;28;19926;-88
2022/12/16 03:24:36;;;;;;;;;;;0.00;99.90;;;;;;4969069;28;20714;-88
2022/12/16 03:27:15;;;;;;;;;;;0.00;99.90;;;;;;4964670;28;19945;-87
2022/12/16 03:29:45;;;;;;;;;;;-0.20;99.90;;;;;;4981861;28;19925;-88
2022/12/16 03:32:14;;;;;;;;;;;-0.20;99.90;;;;;;4973378;28;19952;-88
2022/12/16 03:35:00;;;;;;;;;;;-0.30;99.90;;;;;;4975675;28;19970;-89
2022/12/16 03:37:26;;;;;;;;;;;-0.30;99.90;;;;;;4995848;28;19927;-89
2022/12/16 03:39:53;;;;;;;;;;;-0.40;99.90;;;;;;4979533;28;19926;-88
2022/12/16 03:42:19;;;;;;;;;;;-0.40;99.90;;;;;;4973024;28;19926;-88
2022/12/16 03:44:45;;;;;;;;;;;-0.20;99.90;;;;;;4980432;28;19937;-89
2022/12/16 03:47:12;;;;;;;;;;;-0.40;99.90;;;;;;4972840;28;19980;-88
2022/12/16 03:49:37;;;;;;;;;;;-0.20;99.90;;;;;;4982961;28;19926;-89
2022/12/16 03:52:03;;;;;;;;;;;-0.30;99.90;;;;;;4982017;28;19941;-88
2022/12/16 03:54:29;;;;;;;;;;;-0.20;99.90;;;;;;4966098;28;19968;-88
2022/12/16 03:56:55;;;;;;;;;;;-0.10;99.90;;;;;;4980863;28;19925;-88
2022/12/16 03:59:20;;;;;;;;;;;0.10;99.90;;;;;;4974013;28;20313;-88
2022/12/16 04:01:46;;;;;;;;;;;0.30;99.90;;;;;;4986383;28;19947;-87
2022/12/16 04:04:11;;;;;;;;;;;0.30;99.90;;;;;;4968073;28;19928;-88
2022/12/16 04:06:37;;;;;;;;;;;0.40;99.90;;;;;;4973107;28;19933;-88
2022/12/16 04:26:30;;;;;;;;;;;1.60;99.90;;;;;;5035458;28;19979;-90
2022/12/16 04:28:55;;;;;;;;;;;1.20;99.90;;;;;;5019659;28;19925;-89
2022/12/16 04:31:21;;;;;;;;;;;1.00;99.90;;;;;;5018440;28;19925;-90
